Time;durP1;ratioP1;P1;durP2;ratioP2;P2;SDS_P1;SDS_P2;PMS_P1;PMS_P2;Temp;Humidity;BMP_temperature;BMP_pressure;BME280_temperature;BME280_humidity;BME280_pressure;Samples;Min_cycle;Max_cycle;Signal;HPM_P1;HPM_P2
2022/05/21 00:00:52;;;;;;;7.57;3.85;;;;;;;;;;2106528;28;20052;-46
2022/05/21 00:01:54;;;;;;;6.70;3.23;;;;;;;;;;2098347;28;20045;-47
2022/05/21 00:02:55;;;;;;;5.68;3.85;;;;;;;;;;2098269;28;20509;-47
2022/05/21 00:03:56;;;;;;;9.38;3.88;;;;;;;;;;2098067;28;20123;-48
2022/05/21 00:04:58;;;;;;;6.90;3.92;;;;;;;;;;2098266;28;20054;-47
2022/05/21 00:05:59;;;;;;;5.03;3.08;;;;;;;;;;2098167;28;20048;-47
2022/05/21 00:07:05;;;;;;;5.63;3.60;;;;;;;;;;2098217;28;20052;-47
2022/05/21 00:08:08;;;;;;;9.27;3.80;;;;;;;;;;2098209;28;20044;-47
2022/05/21 00:09:09;;;;;;;5.63;3.35;;;;;;;;;;2098088;28;20620;-48
2022/05/21 00:10:12;;;;;;;7.30;3.40;;;;;;;;;;2098290;28;20082;-48
2022/05/21 00:11:13;;;;;;;6.25;3.40;;;;;;;;;;2098270;28;20044;-48
2022/05/21 00:12:14;;;;;;;4.70;3.60;;;;;;;;;;2097520;28;20041;-49
2022/05/21 00:13:15;;;;;;;6.57;4.20;;;;;;;;;;2098072;28;20088;-47
2022/05/21 00:14:17;;;;;;;6.68;3.25;;;;;;;;;;2098198;28;20048;-47
2022/05/21 00:15:18;;;;;;;5.53;3.20;;;;;;;;;;2098191;28;20048;-49
2022/05/21 00:16:20;;;;;;;6.13;3.45;;;;;;;;;;2098186;28;20131;-48
2022/05/21 00:17:21;;;;;;;4.97;3.28;;;;;;;;;;2097933;28;20048;-47
2022/05/21 00:18:22;;;;;;;8.03;3.60;;;;;;;;;;2098121;28;20053;-47
2022/05/21 00:19:23;;;;;;;8.23;3.65;;;;;;;;;;2097895;28;20561;-48
2022/05/21 00:21:43;;;;;;;5.18;3.47;;;;;;;;;;2098128;28;20123;-47
2022/05/21 00:22:44;;;;;;;6.00;3.85;;;;;;;;;;2100240;28;20132;-49
2022/05/21 00:23:46;;;;;;;5.23;3.53;;;;;;;;;;2106372;28;20078;-47
2022/05/21 00:24:47;;;;;;;5.63;3.63;;;;;;;;;;2106451;28;20154;-47
2022/05/21 00:25:51;;;;;;;9.57;3.33;;;;;;;;;;2106495;28;20055;-48
2022/05/21 00:26:53;;;;;;;7.32;3.80;;;;;;;;;;2106373;28;20160;-47
2022/05/21 00:27:54;;;;;;;6.68;3.72;;;;;;;;;;2106379;28;20153;-50
2022/05/21 00:28:56;;;;;;;6.23;4.07;;;;;;;;;;2106254;28;20067;-47
2022/05/21 00:29:57;;;;;;;6.20;3.55;;;;;;;;;;2106548;28;20055;-46
2022/05/21 00:30:59;;;;;;;4.33;3.43;;;;;;;;;;2106368;28;20044;-47
2022/05/21 00:32:00;;;;;;;6.30;3.60;;;;;;;;;;2106459;28;20056;-47
2022/05/21 00:33:01;;;;;;;5.68;3.38;;;;;;;;;;2106505;28;20129;-47
2022/05/21 00:34:02;;;;;;;8.52;4.28;;;;;;;;;;2106206;28;20540;-46
2022/05/21 00:35:04;;;;;;;7.03;3.50;;;;;;;;;;2106246;28;20044;-47
2022/05/21 00:36:05;;;;;;;6.25;3.28;;;;;;;;;;2106507;28;20055;-46
2022/05/21 00:37:06;;;;;;;5.13;3.25;;;;;;;;;;2106342;28;20521;-48
2022/05/21 00:38:07;;;;;;;5.97;3.50;;;;;;;;;;2106504;28;20068;-48
2022/05/21 00:39:09;;;;;;;5.72;3.30;;;;;;;;;;2106184;28;20484;-48
2022/05/21 00:40:11;;;;;;;6.82;3.75;;;;;;;;;;2106506;28;20127;-47
2022/05/21 00:41:13;;;;;;;8.02;3.80;;;;;;;;;;2106268;28;20481;-47
2022/05/21 00:42:15;;;;;;;9.75;3.90;;;;;;;;;;2106234;28;20047;-47
2022/05/21 00:43:16;;;;;;;;;;;;;;;;;;2106875;28;20603;-48
2022/05/21 00:44:17;;;;;;;6.57;3.78;;;;;;;;;;2106180;28;19920;-47
2022/05/21 00:45:19;;;;;;;4.82;3.30;;;;;;;;;;2106317;28;20127;-49
2022/05/21 00:46:21;;;;;;;5.53;3.63;;;;;;;;;;2106188;28;20459;-47
2022/05/21 00:47:22;;;;;;;8.13;3.63;;;;;;;;;;2106370;28;20491;-48
2022/05/21 00:48:23;;;;;;;5.75;3.80;;;;;;;;;;2106274;28;20135;-48
2022/05/21 00:49:27;;;;;;;7.70;4.23;;;;;;;;;;2106249;28;20454;-47
2022/05/21 00:50:29;;;;;;;5.18;3.80;;;;;;;;;;2106184;28;20284;-47
2022/05/21 00:51:33;;;;;;;8.25;3.50;;;;;;;;;;2106330;28;20134;-47
2022/05/21 00:52:35;;;;;;;7.70;3.90;;;;;;;;;;2106289;28;20126;-49
2022/05/21 00:53:37;;;;;;;6.38;3.70;;;;;;;;;;2106286;28;20075;-48
2022/05/21 00:54:40;;;;;;;4.85;3.60;;;;;;;;;;2106387;28;20141;-47
2022/05/21 00:55:41;;;;;;;6.75;3.83;;;;;;;;;;2106048;28;20090;-48
2022/05/21 00:56:44;;;;;;;6.65;3.35;;;;;;;;;;2106239;28;20476;-47
2022/05/21 00:57:47;;;;;;;7.05;3.03;;;;;;;;;;2106049;28;20134;-48
2022/05/21 01:00:12;;;;;;;8.98;3.70;;;;;;;;;;2106223;28;20123;-47
2022/05/21 01:01:14;;;;;;;6.13;3.45;;;;;;;;;;2106140;28;20525;-48
2022/05/21 01:02:15;;;;;;;;;;;;;;;;;;2106756;28;20044;-48
2022/05/21 01:03:17;;;;;;;5.55;3.75;;;;;;;;;;2106154;28;20076;-47
2022/05/21 01:04:18;;;;;;;4.65;3.22;;;;;;;;;;2106153;28;20099;-47
2022/05/21 01:05:20;;;;;;;8.48;3.35;;;;;;;;;;2106124;28;20048;-47
2022/05/21 01:06:22;;;;;;;3.92;2.78;;;;;;;;;;2106041;28;20404;-47
2022/05/21 01:07:23;;;;;;;5.13;3.15;;;;;;;;;;2106127;28;20385;-48
2022/05/21 01:08:25;;;;;;;5.40;3.50;;;;;;;;;;2106163;28;20048;-47
2022/05/21 01:09:26;;;;;;;4.43;3.10;;;;;;;;;;2106106;28;20564;-47
2022/05/21 01:10:29;;;;;;;6.22;3.08;;;;;;;;;;2106242;28;20395;-47
2022/05/21 01:11:30;;;;;;;4.50;3.08;;;;;;;;;;2106244;28;20571;-48
2022/05/21 01:12:34;;;;;;;4.40;3.17;;;;;;;;;;2106261;28;20134;-47
2022/05/21 01:13:38;;;;;;;3.90;3.17;;;;;;;;;;2105980;28;20055;-49
2022/05/21 01:14:39;;;;;;;6.32;3.03;;;;;;;;;;2106112;28;20564;-47
2022/05/21 01:15:42;;;;;;;5.03;3.05;;;;;;;;;;2106285;28;20052;-60
2022/05/21 01:16:44;;;;;;;4.53;2.90;;;;;;;;;;2106192;28;20112;-60
2022/05/21 01:17:46;;;;;;;4.30;3.17;;;;;;;;;;2106085;28;20105;-60
2022/05/21 01:18:47;;;;;;;5.35;3.80;;;;;;;;;;2102718;28;20048;-60
2022/05/21 01:20:00;;;;;;;10.77;3.83;;;;;;;;;;2105869;28;20173;-60
2022/05/21 01:21:01;;;;;;;5.50;3.33;;;;;;;;;;2106129;28;20119;-60
2022/05/21 01:22:03;;;;;;;4.13;3.00;;;;;;;;;;2106089;28;20181;-60
2022/05/21 01:23:04;;;;;;;4.55;3.13;;;;;;;;;;2105957;28;20131;-60
2022/05/21 01:24:07;;;;;;;5.07;3.58;;;;;;;;;;2104857;28;20128;-60
2022/05/21 01:25:08;;;;;;;7.30;3.60;;;;;;;;;;2106080;28;20131;-60
2022/05/21 01:26:12;;;;;;;4.47;3.33;;;;;;;;;;2106091;28;20071;-60
2022/05/21 01:27:13;;;;;;;4.53;3.00;;;;;;;;;;2105881;28;20124;-60
2022/05/21 01:28:15;;;;;;;10.77;3.17;;;;;;;;;;2106081;28;20650;-60
2022/05/21 01:29:18;;;;;;;5.05;3.30;;;;;;;;;;2105900;28;20361;-60
2022/05/21 01:30:21;;;;;;;7.47;3.88;;;;;;;;;;2106072;28;20144;-60
2022/05/21 01:31:22;;;;;;;6.35;3.30;;;;;;;;;;2106020;28;20052;-60
2022/05/21 01:32:23;;;;;;;5.80;3.28;;;;;;;;;;2106043;28;20131;-59
2022/05/21 01:33:26;;;;;;;5.37;3.20;;;;;;;;;;2105981;28;20545;-60
2022/05/21 01:34:27;;;;;;;4.78;2.92;;;;;;;;;;2105794;28;20437;-60
2022/05/21 01:35:28;;;;;;;6.13;2.83;;;;;;;;;;2105934;28;20048;-60
2022/05/21 01:36:30;;;;;;;3.85;3.15;;;;;;;;;;2106050;28;20116;-60
2022/05/21 01:37:31;;;;;;;4.20;3.22;;;;;;;;;;2105984;28;20054;-60
2022/05/21 01:38:34;;;;;;;5.47;3.33;;;;;;;;;;2105740;28;20056;-60
2022/05/21 01:39:35;;;;;;;6.25;3.15;;;;;;;;;;2106048;28;20054;-60
2022/05/21 01:40:36;;;;;;;5.30;2.70;;;;;;;;;;2105921;28;20051;-60
2022/05/21 01:41:41;;;;;;;5.15;3.50;;;;;;;;;;2106085;28;20371;-60
2022/05/21 01:42:42;;;;;;;4.10;3.03;;;;;;;;;;2105974;28;20040;-60
2022/05/21 01:45:03;;;;;;;5.00;3.28;;;;;;;;;;2105680;28;20268;-60
2022/05/21 01:46:04;;;;;;;4.70;3.00;;;;;;;;;;2106032;28;20148;-60
2022/05/21 01:47:07;;;;;;;6.18;3.75;;;;;;;;;;2105817;28;20094;-59
2022/05/21 01:48:08;;;;;;;4.55;3.00;;;;;;;;;;2105882;28;20131;-59
2022/05/21 01:49:10;;;;;;;5.10;3.63;;;;;;;;;;2105927;28;20442;-60
2022/05/21 01:50:11;;;;;;;5.90;3.30;;;;;;;;;;2105912;28;20135;-59
2022/05/21 01:51:12;;;;;;;4.37;3.10;;;;;;;;;;2105905;28;20079;-60
2022/05/21 01:52:13;;;;;;;5.47;3.78;;;;;;;;;;2105781;28;20564;-60
2022/05/21 01:53:15;;;;;;;4.40;3.25;;;;;;;;;;2105782;28;20059;-59
2022/05/21 01:54:16;;;;;;;;;;;;;;;;;;2106060;28;20060;-59
2022/05/21 01:55:18;;;;;;;5.65;3.20;;;;;;;;;;2105908;28;20380;-59
2022/05/21 01:56:19;;;;;;;5.22;3.40;;;;;;;;;;2105748;28;20483;-60
2022/05/21 01:57:21;;;;;;;4.17;3.03;;;;;;;;;;2105743;28;20051;-60
2022/05/21 01:58:21;;;;;;;;;;;;;;;;;;2106282;28;20055;-60
2022/05/21 01:59:23;;;;;;;4.95;3.03;;;;;;;;;;2105654;28;19919;-60
2022/05/21 02:00:24;;;;;;;4.80;3.03;;;;;;;;;;2105706;28;20055;-60
2022/05/21 02:01:25;;;;;;;4.80;3.43;;;;;;;;;;2105811;28;20048;-60
2022/05/21 02:02:27;;;;;;;7.70;3.40;;;;;;;;;;2105660;28;20044;-59
2022/05/21 02:03:28;;;;;;;5.32;3.60;;;;;;;;;;2105766;28;20638;-60
2022/05/21 02:04:29;;;;;;;6.57;3.58;;;;;;;;;;2105761;28;20130;-60
2022/05/21 02:05:31;;;;;;;5.30;3.00;;;;;;;;;;2105658;28;20437;-60
2022/05/21 02:06:32;;;;;;;4.18;2.85;;;;;;;;;;2105827;28;20055;-60
2022/05/21 02:07:34;;;;;;;6.43;3.53;;;;;;;;;;2105649;28;20048;-60
2022/05/21 02:08:35;;;;;;;6.45;3.45;;;;;;;;;;2105832;28;20138;-60
2022/05/21 02:09:36;;;;;;;5.45;3.25;;;;;;;;;;2105736;28;20131;-60
2022/05/21 02:10:38;;;;;;;5.07;3.65;;;;;;;;;;2105713;28;20106;-60
2022/05/21 02:11:39;;;;;;;6.25;3.05;;;;;;;;;;2105696;28;20546;-60
2022/05/21 02:12:40;;;;;;;4.65;3.10;;;;;;;;;;2105852;28;20131;-60
2022/05/21 02:13:42;;;;;;;4.87;3.60;;;;;;;;;;2105643;28;20504;-60
2022/05/21 02:14:43;;;;;;;6.10;3.53;;;;;;;;;;2105833;28;20040;-59
2022/05/21 02:15:44;;;;;;;8.13;3.55;;;;;;;;;;2105503;28;20139;-59
2022/05/21 02:16:45;;;;;;;4.25;3.25;;;;;;;;;;2105655;28;20072;-60
2022/05/21 02:17:46;;;;;;;4.43;3.10;;;;;;;;;;2105748;28;20048;-60
2022/05/21 02:18:47;;;;;;;8.27;3.28;;;;;;;;;;2101740;28;20482;-60
2022/05/21 02:19:49;;;;;;;4.57;3.33;;;;;;;;;;2097331;28;20072;-59
2022/05/21 02:20:50;;;;;;;4.18;3.08;;;;;;;;;;2097249;28;20048;-60
2022/05/21 02:21:51;;;;;;;5.03;3.63;;;;;;;;;;2097405;28;20045;-60
2022/05/21 02:22:52;;;;;;;5.93;3.60;;;;;;;;;;2097147;28;20420;-59
2022/05/21 02:23:54;;;;;;;7.90;3.77;;;;;;;;;;2097291;28;20052;-58
2022/05/21 02:24:54;;;;;;;5.07;3.42;;;;;;;;;;2097162;28;20044;-60
2022/05/21 02:25:59;;;;;;;5.63;3.60;;;;;;;;;;2097225;28;20056;-59
2022/05/21 02:27:00;;;;;;;7.88;3.75;;;;;;;;;;2097619;28;20312;-47
2022/05/21 02:28:01;;;;;;;6.30;3.83;;;;;;;;;;2097218;28;20501;-47
2022/05/21 02:29:03;;;;;;;9.32;4.55;;;;;;;;;;2097296;28;20105;-46
2022/05/21 02:30:04;;;;;;;5.95;3.40;;;;;;;;;;2097384;28;20119;-47
2022/05/21 02:31:05;;;;;;;6.05;3.75;;;;;;;;;;2097346;28;20087;-46
2022/05/21 02:32:07;;;;;;;6.32;3.78;;;;;;;;;;2097186;28;20052;-47
2022/05/21 02:33:08;;;;;;;8.15;3.83;;;;;;;;;;2097253;28;20211;-46
2022/05/21 02:34:09;;;;;;;4.73;3.40;;;;;;;;;;2097082;28;20052;-46
2022/05/21 02:35:10;;;;;;;4.72;3.80;;;;;;;;;;2096785;28;20064;-47
2022/05/21 02:36:12;;;;;;;9.90;3.90;;;;;;;;;;2097178;28;20128;-47
2022/05/21 02:39:51;;;;;;;4.88;3.42;;;;;;;;;;2097231;28;20661;-46
2022/05/21 02:40:52;;;;;;;5.87;3.57;;;;;;;;;;2097172;28;20162;-47
2022/05/21 02:41:54;;;;;;;6.53;3.50;;;;;;;;;;2097108;28;20568;-46
2022/05/21 02:42:55;;;;;;;;;;;;;;;;;;2097723;28;20098;-49
2022/05/21 02:43:56;;;;;;;6.45;3.58;;;;;;;;;;2097185;28;19943;-46
2022/05/21 02:44:57;;;;;;;5.37;3.17;;;;;;;;;;2097134;28;20170;-47
2022/05/21 02:45:58;;;;;;;5.68;3.25;;;;;;;;;;2097050;28;20765;-48
2022/05/21 02:46:59;;;;;;;8.55;3.92;;;;;;;;;;2097439;28;20635;-60
2022/05/21 02:48:01;;;;;;;4.33;3.40;;;;;;;;;;2097163;28;20123;-60
2022/05/21 02:49:02;;;;;;;4.80;3.47;;;;;;;;;;2097290;28;20473;-48
2022/05/21 02:50:04;;;;;;;6.17;3.30;;;;;;;;;;2097001;28;20049;-48
2022/05/21 02:51:06;;;;;;;5.55;3.42;;;;;;;;;;2097206;28;20368;-46
2022/05/21 02:52:07;;;;;;;5.03;3.28;;;;;;;;;;2097132;28;20397;-46
2022/05/21 02:53:14;;;;;;;6.60;3.73;;;;;;;;;;2097281;28;20045;-46
2022/05/21 02:54:15;;;;;;;5.07;3.53;;;;;;;;;;2097078;28;20097;-46
2022/05/21 02:55:17;;;;;;;5.33;3.90;;;;;;;;;;2097007;28;20113;-46
2022/05/21 02:56:18;;;;;;;5.72;3.53;;;;;;;;;;2097186;28;20285;-46
2022/05/21 02:57:19;;;;;;;5.32;3.40;;;;;;;;;;2097003;28;20050;-46
2022/05/21 02:58:21;;;;;;;6.57;3.75;;;;;;;;;;2097190;28;20063;-48
2022/05/21 02:59:22;;;;;;;4.53;3.13;;;;;;;;;;2096960;28;20098;-47
2022/05/21 03:00:24;;;;;;;5.38;3.75;;;;;;;;;;2097247;28;20101;-46
2022/05/21 03:01:25;;;;;;;5.85;4.05;;;;;;;;;;2097036;28;20048;-47
2022/05/21 03:02:27;;;;;;;8.93;3.37;;;;;;;;;;2097395;28;20052;-60
2022/05/21 03:03:28;;;;;;;5.35;3.53;;;;;;;;;;2097084;28;20312;-60
2022/05/21 03:04:30;;;;;;;5.63;3.80;;;;;;;;;;2096981;28;20051;-60
2022/05/21 03:05:31;;;;;;;4.00;3.17;;;;;;;;;;2096941;28;20160;-60
2022/05/21 03:06:32;;;;;;;4.75;3.38;;;;;;;;;;2097025;28;20489;-60
2022/05/21 03:07:35;;;;;;;5.65;3.60;;;;;;;;;;2097115;28;20127;-59
2022/05/21 03:11:15;;;;;;;13.15;4.07;;;;;;;;;;2097372;28;20041;-59
2022/05/21 03:12:16;;;;;;;5.88;3.47;;;;;;;;;;2105451;28;20052;-60
2022/05/21 03:13:18;;;;;;;4.77;3.63;;;;;;;;;;2105404;28;20040;-60
2022/05/21 03:14:19;;;;;;;6.65;3.15;;;;;;;;;;2105434;28;20040;-59
2022/05/21 03:15:21;;;;;;;7.63;3.93;;;;;;;;;;2105295;28;20158;-60
2022/05/21 03:16:22;;;;;;;5.40;3.60;;;;;;;;;;2105554;28;20051;-60
2022/05/21 03:17:25;;;;;;;6.33;3.90;;;;;;;;;;2105291;28;20048;-60
2022/05/21 03:18:26;;;;;;;4.28;3.03;;;;;;;;;;2105228;28;20123;-60
2022/05/21 03:19:28;;;;;;;6.40;3.78;;;;;;;;;;2105304;28;20142;-60
2022/05/21 03:20:29;;;;;;;4.95;3.63;;;;;;;;;;2105337;28;20493;-60
2022/05/21 03:21:30;;;;;;;5.45;3.75;;;;;;;;;;2105350;28;20123;-60
2022/05/21 03:22:31;;;;;;;5.00;3.20;;;;;;;;;;2105449;28;20059;-60
2022/05/21 03:23:33;;;;;;;9.23;3.42;;;;;;;;;;2105440;28;20089;-60
2022/05/21 03:24:34;;;;;;;4.93;3.30;;;;;;;;;;2105450;28;20040;-60
2022/05/21 03:25:36;;;;;;;6.57;3.80;;;;;;;;;;2105388;28;20055;-60
2022/05/21 03:26:37;;;;;;;5.93;3.30;;;;;;;;;;2105406;28;20288;-60
2022/05/21 03:27:38;;;;;;;6.20;3.37;;;;;;;;;;2105364;28;20128;-60
2022/05/21 03:28:40;;;;;;;6.38;3.25;;;;;;;;;;2105210;28;20554;-60
2022/05/21 03:29:41;;;;;;;6.03;4.15;;;;;;;;;;2105248;28;20058;-60
2022/05/21 03:30:42;;;;;;;6.50;3.35;;;;;;;;;;2105559;28;20122;-46
2022/05/21 03:31:43;;;;;;;6.07;3.60;;;;;;;;;;2105358;28;20044;-47
2022/05/21 03:32:44;;;;;;;5.95;3.00;;;;;;;;;;2105269;28;20056;-46
2022/05/21 03:33:46;;;;;;;5.43;3.42;;;;;;;;;;2105265;28;20127;-46
2022/05/21 03:34:46;;;;;;;4.50;3.35;;;;;;;;;;2105186;28;20515;-46
2022/05/21 03:35:48;;;;;;;6.40;3.67;;;;;;;;;;2105310;28;20059;-46
2022/05/21 03:36:49;;;;;;;7.32;3.47;;;;;;;;;;2105626;28;20056;-60
2022/05/21 03:37:50;;;;;;;4.65;3.20;;;;;;;;;;2105152;28;20093;-60
2022/05/21 03:38:52;;;;;;;5.88;3.65;;;;;;;;;;2105376;28;20130;-60
2022/05/21 03:39:53;;;;;;;5.60;3.30;;;;;;;;;;2105149;28;20040;-59
2022/05/21 03:40:54;;;;;;;4.20;3.17;;;;;;;;;;2105297;28;20083;-60
2022/05/21 03:41:55;;;;;;;4.95;3.45;;;;;;;;;;2105246;28;20040;-60
2022/05/21 03:42:56;;;;;;;5.70;3.80;;;;;;;;;;2105304;28;20078;-60
2022/05/21 03:43:58;;;;;;;6.90;3.70;;;;;;;;;;2105086;28;20098;-59
2022/05/21 03:44:59;;;;;;;5.13;3.15;;;;;;;;;;2105353;28;20382;-59
2022/05/21 03:46:00;;;;;;;4.18;2.67;;;;;;;;;;2105126;28;20138;-60
2022/05/21 03:47:02;;;;;;;4.18;3.22;;;;;;;;;;2105279;28;20416;-60
2022/05/21 03:48:05;;;;;;;4.53;3.17;;;;;;;;;;2106838;28;20108;-60
2022/05/21 03:49:07;;;;;;;5.72;3.03;;;;;;;;;;2106871;28;20040;-46
2022/05/21 03:50:08;;;;;;;10.88;3.60;;;;;;;;;;2106795;28;20052;-46
2022/05/21 03:51:10;;;;;;;6.15;3.22;;;;;;;;;;2106681;28;20051;-47
2022/05/21 03:52:11;;;;;;;7.60;3.13;;;;;;;;;;2106781;28;20048;-47
2022/05/21 03:53:14;;;;;;;4.47;3.10;;;;;;;;;;2106448;28;20048;-46
2022/05/21 03:54:15;;;;;;;7.15;3.58;;;;;;;;;;2106298;28;20516;-46
2022/05/21 03:55:17;;;;;;;8.10;4.27;;;;;;;;;;2106449;28;20071;-46
2022/05/21 03:56:18;;;;;;;5.30;3.42;;;;;;;;;;2106540;28;20478;-46
2022/05/21 03:57:19;;;;;;;5.60;3.80;;;;;;;;;;2106689;28;20070;-47
2022/05/21 03:58:20;;;;;;;7.00;3.47;;;;;;;;;;2106562;28;20051;-46
2022/05/21 03:59:22;;;;;;;6.22;3.35;;;;;;;;;;2106545;28;20052;-46
2022/05/21 04:00:23;;;;;;;4.40;3.10;;;;;;;;;;2106628;28;20131;-46
2022/05/21 04:01:24;;;;;;;6.97;3.70;;;;;;;;;;2106660;28;20132;-46
2022/05/21 04:02:26;;;;;;;5.28;3.72;;;;;;;;;;2106531;28;20056;-47
2022/05/21 04:03:27;;;;;;;4.82;3.10;;;;;;;;;;2106558;28;20482;-46
2022/05/21 04:04:28;;;;;;;4.00;3.17;;;;;;;;;;2106810;28;20131;-47
2022/05/21 04:05:29;;;;;;;6.70;3.15;;;;;;;;;;2106834;28;20044;-47
2022/05/21 04:06:30;;;;;;;5.40;3.40;;;;;;;;;;2106580;28;20598;-46
2022/05/21 04:07:31;;;;;;;10.20;3.60;;;;;;;;;;2106411;28;20078;-47
2022/05/21 04:08:33;;;;;;;3.90;3.00;;;;;;;;;;2106433;28;20559;-46
2022/05/21 04:09:34;;;;;;;4.72;3.30;;;;;;;;;;2106877;28;20040;-60
2022/05/21 04:10:35;;;;;;;4.95;3.38;;;;;;;;;;2106505;28;20056;-60
2022/05/21 04:11:36;;;;;;;7.00;3.47;;;;;;;;;;2106468;28;20044;-60
2022/05/21 04:12:37;;;;;;;4.70;3.33;;;;;;;;;;2106615;28;20048;-60
2022/05/21 04:13:39;;;;;;;12.23;3.60;;;;;;;;;;2106328;28;20405;-60
2022/05/21 04:14:40;;;;;;;7.17;3.57;;;;;;;;;;2106559;28;20059;-60
2022/05/21 04:15:42;;;;;;;6.43;3.55;;;;;;;;;;2106400;28;20371;-60
2022/05/21 04:16:43;;;;;;;5.20;3.60;;;;;;;;;;2106542;28;20157;-60
2022/05/21 04:17:44;;;;;;;5.30;3.50;;;;;;;;;;2106361;28;20051;-60
2022/05/21 04:18:45;;;;;;;7.43;3.63;;;;;;;;;;2102984;28;20040;-60
2022/05/21 04:19:46;;;;;;;4.75;3.47;;;;;;;;;;2098133;28;20135;-60
2022/05/21 04:20:48;;;;;;;4.25;3.05;;;;;;;;;;2098122;28;20040;-60
2022/05/21 04:21:49;;;;;;;8.35;3.78;;;;;;;;;;2098068;28;20409;-60
2022/05/21 04:22:50;;;;;;;5.63;2.97;;;;;;;;;;2098051;28;20068;-60
2022/05/21 04:23:51;;;;;;;6.13;3.40;;;;;;;;;;2098163;28;20135;-60
2022/05/21 04:24:52;;;;;;;5.60;3.27;;;;;;;;;;2097980;28;20131;-60
2022/05/21 04:25:53;;;;;;;6.63;4.00;;;;;;;;;;2098078;28;20155;-60
2022/05/21 04:26:54;;;;;;;6.60;3.07;;;;;;;;;;2098148;28;20169;-60
2022/05/21 04:27:56;;;;;;;5.47;3.13;;;;;;;;;;2098007;28;20584;-60
2022/05/21 04:28:58;;;;;;;7.40;2.90;;;;;;;;;;2097835;28;20477;-59
2022/05/21 04:30:00;;;;;;;4.75;3.20;;;;;;;;;;2098071;28;20136;-60
2022/05/21 04:31:01;;;;;;;;;;;;;;;;;;2098549;28;20072;-60
2022/05/21 04:32:02;;;;;;;7.72;3.58;;;;;;;;;;2098038;28;19954;-60
2022/05/21 04:33:03;;;;;;;4.50;3.22;;;;;;;;;;2097958;28;20040;-60
2022/05/21 04:34:05;;;;;;;4.90;3.20;;;;;;;;;;2097848;28;20153;-60
2022/05/21 04:35:06;;;;;;;5.57;3.45;;;;;;;;;;2098080;28;20178;-60
2022/05/21 04:36:19;;;;;;;5.15;3.78;;;;;;;;;;2097944;28;20047;-60
2022/05/21 04:37:21;;;;;;;7.15;4.07;;;;;;;;;;2098095;28;20127;-60
2022/05/21 04:38:22;;;;;;;6.05;3.35;;;;;;;;;;2097948;28;20123;-60
2022/05/21 04:39:23;;;;;;;5.93;3.35;;;;;;;;;;2098086;28;20059;-60
2022/05/21 04:40:24;;;;;;;5.60;3.80;;;;;;;;;;2097883;28;20083;-60
2022/05/21 04:41:25;;;;;;;5.40;3.38;;;;;;;;;;2097874;28;20160;-60
2022/05/21 04:42:27;;;;;;;6.38;3.70;;;;;;;;;;2097784;28;20058;-60
2022/05/21 04:43:28;;;;;;;5.18;3.35;;;;;;;;;;2097927;28;20135;-60
2022/05/21 04:44:35;;;;;;;4.28;3.10;;;;;;;;;;2097931;28;20051;-60
2022/05/21 04:45:37;;;;;;;5.47;3.20;;;;;;;;;;2098045;28;20401;-60
2022/05/21 04:46:39;;;;;;;5.57;3.25;;;;;;;;;;2097853;28;20113;-60
2022/05/21 04:47:40;;;;;;;7.70;3.47;;;;;;;;;;2097786;28;20464;-46
2022/05/21 04:48:42;;;;;;;4.55;3.42;;;;;;;;;;2097934;28;20135;-47
2022/05/21 04:50:03;;;;;;;6.25;3.30;;;;;;;;;;2098129;28;20098;-46
2022/05/21 04:51:05;;;;;;;7.15;3.22;;;;;;;;;;2098093;28;20083;-46
2022/05/21 04:52:06;;;;;;;3.78;2.72;;;;;;;;;;2097790;28;20400;-47
2022/05/21 04:53:07;;;;;;;5.85;3.92;;;;;;;;;;2097995;28;20045;-46
2022/05/21 04:54:08;;;;;;;6.07;3.15;;;;;;;;;;2097813;28;20116;-46
2022/05/21 04:55:10;;;;;;;6.53;3.30;;;;;;;;;;2098011;28;20221;-46
2022/05/21 04:56:11;;;;;;;5.43;3.65;;;;;;;;;;2097677;28;20059;-47
2022/05/21 04:57:32;;;;;;;5.53;3.60;;;;;;;;;;2097882;28;20055;-47
2022/05/21 04:58:33;;;;;;;6.00;3.65;;;;;;;;;;2097805;28;20128;-47
2022/05/21 04:59:34;;;;;;;6.53;3.85;;;;;;;;;;2098131;28;20048;-46
2022/05/21 05:00:35;;;;;;;5.13;3.30;;;;;;;;;;2097810;28;20132;-46
2022/05/21 05:01:38;;;;;;;5.07;3.40;;;;;;;;;;2097974;28;20131;-47
2022/05/21 05:02:39;;;;;;;6.78;3.75;;;;;;;;;;2097806;28;20052;-48
2022/05/21 05:03:40;;;;;;;6.37;3.37;;;;;;;;;;2097811;28;20401;-46
2022/05/21 05:04:41;;;;;;;4.85;3.15;;;;;;;;;;2105831;28;20051;-46
2022/05/21 05:05:43;;;;;;;7.57;3.17;;;;;;;;;;2106384;28;20179;-48
2022/05/21 05:06:44;;;;;;;4.85;3.38;;;;;;;;;;2106187;28;20127;-46
2022/05/21 05:07:45;;;;;;;4.97;3.10;;;;;;;;;;2106319;28;20048;-46
2022/05/21 05:08:46;;;;;;;6.45;2.92;;;;;;;;;;2106132;28;20134;-46
2022/05/21 05:09:47;;;;;;;5.88;3.55;;;;;;;;;;2106115;28;20036;-46
2022/05/21 05:10:50;;;;;;;8.88;3.47;;;;;;;;;;2106115;28;20084;-47
2022/05/21 05:11:51;;;;;;;7.22;3.60;;;;;;;;;;2106050;28;20092;-46
2022/05/21 05:12:52;;;;;;;5.40;2.90;;;;;;;;;;2106085;28;20154;-47
2022/05/21 05:13:53;;;;;;;7.53;3.43;;;;;;;;;;2106077;28;20044;-46
2022/05/21 05:14:54;;;;;;;3.85;3.00;;;;;;;;;;2106134;28;20127;-46
2022/05/21 05:15:55;;;;;;;8.37;3.67;;;;;;;;;;2105913;28;20070;-47
2022/05/21 05:16:57;;;;;;;12.63;3.58;;;;;;;;;;2106202;28;20096;-46
2022/05/21 05:17:58;;;;;;;6.05;3.33;;;;;;;;;;2106205;28;20048;-47
2022/05/21 05:18:59;;;;;;;;;;;;;;;;;;2100988;28;20256;-46
2022/05/21 05:20:01;;;;;;;5.85;3.30;;;;;;;;;;2097732;28;20015;-47
2022/05/21 05:21:02;;;;;;;9.18;4.75;;;;;;;;;;2097687;28;20044;-46
2022/05/21 05:22:03;;;;;;;5.15;2.92;;;;;;;;;;2097674;28;20681;-46
2022/05/21 05:23:05;;;;;;;6.57;3.45;;;;;;;;;;2097626;28;20266;-47
2022/05/21 05:24:06;;;;;;;5.18;3.40;;;;;;;;;;2097834;28;20103;-47
2022/05/21 05:25:08;;;;;;;4.53;2.90;;;;;;;;;;2097751;28;20044;-47
2022/05/21 05:26:09;;;;;;;5.50;2.90;;;;;;;;;;2097736;28;20119;-46
2022/05/21 05:27:10;;;;;;;5.47;3.53;;;;;;;;;;2097680;28;20131;-46
2022/05/21 05:28:13;;;;;;;4.97;3.20;;;;;;;;;;2097623;28;20497;-47
2022/05/21 05:29:14;;;;;;;4.63;3.42;;;;;;;;;;2097464;28;20833;-47
2022/05/21 05:30:15;;;;;;;5.43;3.80;;;;;;;;;;2097505;28;20048;-46
2022/05/21 05:31:17;;;;;;;5.90;3.30;;;;;;;;;;2097594;28;20740;-46
2022/05/21 05:32:19;;;;;;;8.38;3.40;;;;;;;;;;2097761;28;20047;-47
2022/05/21 05:33:19;;;;;;;;;;;;;;;;;;2098035;28;20070;-46
2022/05/21 05:34:20;;;;;;;5.60;3.60;;;;;;;;;;2097655;28;19955;-46
2022/05/21 05:35:22;;;;;;;5.20;3.17;;;;;;;;;;2097653;28;20085;-46
2022/05/21 05:36:23;;;;;;;6.20;3.25;;;;;;;;;;2097496;28;20483;-46
2022/05/21 05:37:24;;;;;;;5.78;3.20;;;;;;;;;;2097753;28;20564;-47
2022/05/21 05:38:25;;;;;;;9.50;3.42;;;;;;;;;;2097505;28;20167;-46
2022/05/21 05:39:26;;;;;;;6.95;3.25;;;;;;;;;;2097553;28;20040;-46
2022/05/21 05:40:28;;;;;;;8.68;3.70;;;;;;;;;;2097702;28;20045;-46
2022/05/21 05:41:29;;;;;;;;;;;;;;;;;;2097905;28;20048;-46
2022/05/21 05:42:30;;;;;;;5.93;3.20;;;;;;;;;;2097412;28;19920;-46
2022/05/21 05:43:31;;;;;;;5.65;3.10;;;;;;;;;;2097519;28;20064;-47
2022/05/21 05:44:32;;;;;;;5.00;3.47;;;;;;;;;;2097478;28;20044;-46
2022/05/21 05:45:34;;;;;;;6.53;3.45;;;;;;;;;;2097533;28;20083;-46
2022/05/21 05:46:35;;;;;;;5.05;3.10;;;;;;;;;;2097601;28;20057;-47
2022/05/21 05:47:37;;;;;;;5.55;3.50;;;;;;;;;;2097404;28;20490;-46
2022/05/21 05:48:37;;;;;;;;;;;;;;;;;;2097945;28;20478;-46
2022/05/21 05:49:39;;;;;;;4.90;3.20;;;;;;;;;;2097511;28;19972;-46
2022/05/21 05:50:41;;;;;;;8.35;3.38;;;;;;;;;;2097635;28;20049;-46
2022/05/21 05:51:42;;;;;;;5.18;3.50;;;;;;;;;;2097540;28;20309;-46
2022/05/21 05:52:43;;;;;;;4.95;3.10;;;;;;;;;;2097362;28;20089;-47
2022/05/21 05:53:45;;;;;;;7.37;3.60;;;;;;;;;;2097458;28;20236;-48
2022/05/21 05:54:46;;;;;;;6.32;3.40;;;;;;;;;;2097407;28;20631;-46
2022/05/21 05:55:48;;;;;;;3.30;2.85;;;;;;;;;;2097466;28;20131;-47
2022/05/21 05:56:49;;;;;;;7.00;3.10;;;;;;;;;;2097449;28;20524;-46
2022/05/21 05:57:51;;;;;;;5.07;3.40;;;;;;;;;;2097405;28;20051;-46
2022/05/21 06:00:11;;;;;;;4.68;3.30;;;;;;;;;;2099050;28;20498;-46
2022/05/21 06:01:12;;;;;;;7.05;3.70;;;;;;;;;;2106006;28;20123;-61
2022/05/21 06:03:34;;;;;;;6.22;3.17;;;;;;;;;;2105837;28;20059;-60
2022/05/21 06:04:35;;;;;;;8.23;3.85;;;;;;;;;;2105889;28;20048;-60
2022/05/21 06:05:37;;;;;;;5.45;3.40;;;;;;;;;;2105789;28;20238;-60
2022/05/21 06:06:38;;;;;;;5.10;3.40;;;;;;;;;;2105778;28;20044;-60
2022/05/21 06:07:42;;;;;;;5.53;4.00;;;;;;;;;;2105963;28;20130;-60
2022/05/21 06:08:44;;;;;;;9.15;3.50;;;;;;;;;;2105761;28;20072;-60
2022/05/21 06:09:45;;;;;;;6.10;3.65;;;;;;;;;;2105648;28;20072;-47
2022/05/21 06:10:48;;;;;;;5.17;3.70;;;;;;;;;;2105634;28;20068;-60
2022/05/21 06:11:49;;;;;;;6.97;3.30;;;;;;;;;;2105663;28;20289;-60
2022/05/21 06:12:50;;;;;;;5.27;3.20;;;;;;;;;;2105762;28;20082;-60
2022/05/21 06:13:51;;;;;;;6.10;3.58;;;;;;;;;;2105834;28;20079;-60
2022/05/21 06:14:53;;;;;;;4.85;2.97;;;;;;;;;;2105702;28;20047;-60
2022/05/21 06:15:54;;;;;;;5.05;3.13;;;;;;;;;;2105700;28;20047;-60
2022/05/21 06:16:55;;;;;;;4.47;3.40;;;;;;;;;;2105701;28;20081;-60
2022/05/21 06:17:57;;;;;;;6.20;3.80;;;;;;;;;;2105590;28;20109;-60
2022/05/21 06:18:58;;;;;;;6.05;3.75;;;;;;;;;;2100379;28;20638;-60
2022/05/21 06:20:00;;;;;;;4.55;3.03;;;;;;;;;;2097435;28;20127;-60
2022/05/21 06:21:02;;;;;;;4.70;3.42;;;;;;;;;;2097339;28;20049;-60
2022/05/21 06:22:03;;;;;;;6.10;3.65;;;;;;;;;;2097245;28;20041;-61
2022/05/21 06:23:04;;;;;;;5.53;3.38;;;;;;;;;;2097315;28;20582;-60